createdAt,value
2018-04-14T00:01:15.964Z,101090.47
2018-04-14T00:03:43.544Z,101090.97
2018-04-14T00:06:11.024Z,101097.06
2018-04-14T00:08:38.485Z,101097.02
2018-04-14T00:11:05.970Z,101100.31
2018-04-14T00:13:34.408Z,101097.76
2018-04-14T00:16:01.969Z,101096.34
2018-04-14T00:18:29.443Z,101095.63
2018-04-14T00:20:56.943Z,101095.44
2018-04-14T00:23:25.500Z,101091.08
2018-04-14T00:25:53.008Z,101095.39
2018-04-14T00:28:20.467Z,101082.72
2018-04-14T00:30:48.013Z,101078.91
2018-04-14T00:33:15.496Z,101082.39
2018-04-14T00:35:42.991Z,101070.34
2018-04-14T00:38:10.449Z,101053.91
2018-04-14T00:40:37.927Z,101048.53
2018-04-14T00:43:06.285Z,101046.73
2018-04-14T00:45:33.771Z,101037.32
2018-04-14T00:48:01.225Z,101034.09
2018-04-14T00:50:28.787Z,101043.12
2018-04-14T00:52:56.348Z,101048.23
2018-04-14T00:55:23.811Z,101040.05
2018-04-14T00:57:51.307Z,101035.58
2018-04-14T01:00:18.823Z,101035.00
2018-04-14T01:02:46.322Z,101034.63
2018-04-14T01:05:13.844Z,101037.15
2018-04-14T01:07:41.398Z,101042.29
2018-04-14T01:10:08.843Z,101044.67
2018-04-14T01:12:36.469Z,101035.18
2018-04-14T01:15:03.971Z,101033.98
2018-04-14T01:17:32.451Z,101029.95
2018-04-14T01:19:59.907Z,101037.36
2018-04-14T01:22:27.403Z,101060.77
2018-04-14T01:24:54.984Z,101058.55
2018-04-14T01:27:22.472Z,101058.77
2018-04-14T01:29:49.938Z,101063.61
2018-04-14T01:32:17.502Z,101067.63
2018-04-14T01:34:44.995Z,101070.51
2018-04-14T01:37:12.451Z,101073.00
2018-04-14T01:39:41.004Z,101070.34
2018-04-14T01:42:09.368Z,101084.55
2018-04-14T01:44:36.868Z,101090.38
2018-04-14T01:47:04.396Z,101103.36
2018-04-14T01:49:31.947Z,101100.80
2018-04-14T01:51:59.405Z,101106.79
2018-04-14T01:54:26.898Z,101112.67
2018-04-14T01:56:54.347Z,101123.12
2018-04-14T01:59:22.800Z,101138.44
2018-04-14T02:01:50.255Z,101154.05
2018-04-14T02:04:17.815Z,101157.03
2018-04-14T02:06:45.269Z,101163.14
2018-04-14T02:09:12.746Z,101161.84
2018-04-14T02:11:40.207Z,101166.39
2018-04-14T02:14:07.659Z,101162.17
2018-04-14T02:16:35.136Z,101154.64
2018-04-14T02:19:02.667Z,101154.78
2018-04-14T02:21:30.146Z,101161.61
2018-04-14T02:23:57.604Z,101170.50
2018-04-14T02:26:25.084Z,101155.17
2018-04-14T02:28:54.498Z,101146.23
2018-04-14T02:31:21.972Z,101141.83
2018-04-14T02:33:49.444Z,101146.00
2018-04-14T02:36:17.037Z,101152.64
2018-04-14T02:38:44.494Z,101147.94
2018-04-14T02:41:11.980Z,101150.44
2018-04-14T02:43:39.432Z,101151.05
2018-04-14T02:46:06.914Z,101148.36
2018-04-14T02:48:34.358Z,101147.41
2018-04-14T02:51:01.852Z,101143.84
2018-04-14T02:53:30.296Z,101142.72
2018-04-14T02:55:57.896Z,101146.70
2018-04-14T02:58:25.352Z,101144.61
2018-04-14T03:00:52.855Z,101136.49
2018-04-14T03:03:20.368Z,101134.00
2018-04-14T03:05:48.843Z,101142.25
2018-04-14T03:08:16.328Z,101140.28
2018-04-14T03:10:43.771Z,101133.57
2018-04-14T03:13:12.249Z,101132.03
2018-04-14T03:15:40.692Z,101125.02
2018-04-14T03:18:08.173Z,101116.41
2018-04-14T03:20:35.632Z,101110.60
2018-04-14T03:23:03.115Z,101117.38
2018-04-14T03:25:30.567Z,101125.27
2018-04-14T03:27:58.059Z,101118.02
2018-04-14T03:30:25.520Z,101124.86
2018-04-14T03:32:53.020Z,101119.25
2018-04-14T03:35:20.486Z,101130.88
2018-04-14T03:37:47.970Z,101135.91
2018-04-14T03:40:16.385Z,101130.19
2018-04-14T03:42:43.880Z,101118.48
2018-04-14T03:45:11.340Z,101118.14
2018-04-14T03:47:38.830Z,101121.72
2018-04-14T03:50:06.289Z,101127.17
2018-04-14T03:52:34.735Z,101138.89
2018-04-14T03:55:02.208Z,101126.02
2018-04-14T03:57:29.668Z,101123.83
2018-04-14T03:59:57.163Z,101134.97
2018-04-14T04:02:25.548Z,101136.69
2018-04-14T04:04:53.135Z,101129.52
2018-04-14T04:07:20.689Z,101130.70
2018-04-14T04:09:48.176Z,101135.39
2018-04-14T04:12:15.631Z,101143.08
2018-04-14T04:14:43.139Z,101142.63
2018-04-14T04:17:10.600Z,101150.64
2018-04-14T04:19:51.064Z,101151.16
2018-04-14T04:22:30.396Z,101142.99
2018-04-14T04:28:09.905Z,101159.30
2018-04-14T04:30:37.387Z,101161.58
2018-04-14T04:33:04.846Z,101156.77
2018-04-14T04:35:32.338Z,101162.36
2018-04-14T04:37:59.803Z,101166.52
2018-04-14T04:40:27.291Z,101176.14
2018-04-14T04:42:54.750Z,101189.49
2018-04-14T04:45:22.287Z,101185.73
2018-04-14T04:47:49.837Z,101186.14
2018-04-14T04:50:17.328Z,101187.45
2018-04-14T04:52:44.773Z,101185.67
2018-04-14T04:55:13.158Z,101184.92
2018-04-14T04:57:40.617Z,101182.01
2018-04-14T05:00:08.146Z,101196.21
2018-04-14T05:02:35.598Z,101192.38
2018-04-14T05:05:03.048Z,101189.41
2018-04-14T05:07:30.524Z,101195.73
2018-04-14T05:09:58.035Z,101182.31
2018-04-14T05:12:25.521Z,101181.02
2018-04-14T05:14:52.975Z,101184.45
2018-04-14T05:17:20.463Z,101202.70
2018-04-14T05:19:47.923Z,101210.14
2018-04-14T05:22:15.410Z,101205.61
2018-04-14T05:24:43.811Z,101205.77
2018-04-14T05:27:11.396Z,101197.71
2018-04-14T05:29:38.850Z,101207.27
2018-04-14T05:32:06.332Z,101196.21
2018-04-14T05:34:33.787Z,101205.30
2018-04-14T05:37:01.281Z,101203.53
2018-04-14T05:39:28.748Z,101204.04
2018-04-14T05:41:56.207Z,101198.45
2018-04-14T05:44:23.767Z,101193.70
2018-04-14T05:46:51.257Z,101190.65
2018-04-14T05:49:19.734Z,101192.52
2018-04-14T05:51:47.184Z,101205.63
2018-04-14T05:54:14.679Z,101215.66
2018-04-14T05:56:42.208Z,101220.77
2018-04-14T05:59:09.689Z,101224.11
2018-04-14T06:01:37.147Z,101215.58
2018-04-14T06:04:04.625Z,101217.47
2018-04-14T06:06:32.080Z,101224.20
2018-04-14T06:08:59.621Z,101225.05
2018-04-14T06:11:27.027Z,101218.36
2018-04-14T06:13:54.511Z,101221.06
2018-04-14T06:16:21.963Z,101224.09
2018-04-14T06:18:49.469Z,101233.87
2018-04-14T06:21:16.916Z,101240.19
2018-04-14T06:23:44.451Z,101254.63
2018-04-14T06:26:11.947Z,101261.70
2018-04-14T06:28:39.453Z,101277.97
2018-04-14T06:31:06.940Z,101289.41
2018-04-14T06:33:34.396Z,101285.75
2018-04-14T06:36:01.882Z,101285.28
2018-04-14T06:38:29.484Z,101282.05
2018-04-14T06:40:56.971Z,101288.95
2018-04-14T06:43:24.504Z,101289.45
2018-04-14T06:45:51.998Z,101292.25
2018-04-14T06:48:19.439Z,101286.53
2018-04-14T06:50:46.967Z,101286.33
2018-04-14T06:53:14.626Z,101292.15
2018-04-14T06:55:42.107Z,101291.27
2018-04-14T06:58:09.638Z,101299.55
2018-04-14T07:00:37.123Z,101299.66
2018-04-14T07:03:04.574Z,101303.12
2018-04-14T07:05:32.054Z,101306.41
2018-04-14T07:07:59.510Z,101303.05
2018-04-14T07:10:27.002Z,101305.64
2018-04-14T07:12:54.482Z,101303.83
2018-04-14T07:15:22.964Z,101301.97
2018-04-14T07:17:50.443Z,101296.05
2018-04-14T07:20:17.901Z,101299.85
2018-04-14T07:22:45.379Z,101304.86
2018-04-14T07:25:12.916Z,101307.87
2018-04-14T07:27:40.407Z,101305.81
2018-04-14T07:30:07.858Z,101305.17
2018-04-14T07:32:35.380Z,101303.06
2018-04-14T07:35:02.838Z,101303.19
2018-04-14T07:37:30.357Z,101316.70
2018-04-14T07:39:57.788Z,101315.13
2018-04-14T07:42:25.271Z,101302.66
2018-04-14T07:44:52.731Z,101303.23
2018-04-14T07:47:20.231Z,101308.14
2018-04-14T07:49:47.692Z,101304.77
2018-04-14T07:52:15.192Z,101302.29
2018-04-14T07:54:42.691Z,101306.58
2018-04-14T07:57:10.175Z,101312.73
2018-04-14T07:59:37.639Z,101313.59
2018-04-14T08:02:05.115Z,101314.49
2018-04-14T08:04:32.609Z,101303.57
2018-04-14T08:07:00.075Z,101301.27
2018-04-14T08:09:27.562Z,101303.91
2018-04-14T08:11:55.019Z,101302.77
2018-04-14T08:14:22.516Z,101303.89
2018-04-14T08:16:49.985Z,101312.27
2018-04-14T08:19:17.463Z,101318.48
2018-04-14T08:21:44.919Z,101313.48
2018-04-14T08:24:12.415Z,101308.87
2018-04-14T08:26:39.867Z,101306.03
2018-04-14T08:29:07.348Z,101319.48
2018-04-14T08:31:34.806Z,101334.35
2018-04-14T08:34:02.300Z,101326.18
2018-04-14T08:36:29.756Z,101327.86
2018-04-14T08:38:57.248Z,101323.86
2018-04-14T08:41:24.712Z,101327.97
2018-04-14T08:43:52.204Z,101325.63
2018-04-14T08:46:19.663Z,101332.47
2018-04-14T08:48:47.123Z,101329.03
2018-04-14T08:51:14.612Z,101338.98
2018-04-14T08:53:42.063Z,101338.46
2018-04-14T08:56:09.544Z,101340.34
2018-04-14T08:58:37.043Z,101332.95
2018-04-14T09:01:04.525Z,101347.28
2018-04-14T09:03:31.981Z,101347.97
2018-04-14T09:05:59.465Z,101357.26
2018-04-14T09:08:26.925Z,101372.92
2018-04-14T09:10:54.408Z,101375.07
2018-04-14T09:13:21.873Z,101369.86
2018-04-14T09:15:52.104Z,101372.78
2018-04-14T09:18:19.560Z,101382.83
2018-04-14T09:20:47.063Z,101376.73
2018-04-14T09:23:14.523Z,101369.55
2018-04-14T09:25:42.047Z,101367.36
2018-04-14T09:28:09.528Z,101384.26
2018-04-14T09:30:36.986Z,101374.41
2018-04-14T09:33:04.511Z,101380.77
2018-04-14T09:35:31.963Z,101369.63
2018-04-14T09:37:59.491Z,101382.36
2018-04-14T09:40:26.943Z,101383.91
2018-04-14T09:42:54.569Z,101385.64
2018-04-14T09:45:21.985Z,101383.33
2018-04-14T09:47:49.472Z,101382.00
2018-04-14T09:50:16.932Z,101379.44
2018-04-14T09:52:44.438Z,101387.81
2018-04-14T09:55:11.903Z,101398.17
2018-04-14T09:57:41.280Z,101395.34
2018-04-14T10:00:08.776Z,101393.32
2018-04-14T10:02:42.110Z,101388.34
2018-04-14T10:05:09.583Z,101395.03
2018-04-14T10:07:37.086Z,101399.47
2018-04-14T10:10:04.613Z,101397.95
2018-04-14T10:12:32.140Z,101394.58
2018-04-14T10:14:59.664Z,101405.84
2018-04-14T10:17:27.123Z,101403.18
2018-04-14T10:19:54.627Z,101406.56
2018-04-14T10:22:22.080Z,101413.80
2018-04-14T10:24:49.564Z,101404.33
2018-04-14T10:27:17.016Z,101415.67
2018-04-14T10:29:45.496Z,101414.39
2018-04-14T10:32:12.949Z,101419.92
2018-04-14T10:34:40.451Z,101428.33
2018-04-14T10:37:09.922Z,101420.55
2018-04-14T10:39:37.481Z,101419.05
2018-04-14T10:42:04.972Z,101418.28
2018-04-14T10:44:32.456Z,101432.64
2018-04-14T10:47:00.927Z,101426.20
2018-04-14T10:49:28.671Z,101434.09
2018-04-14T10:51:59.526Z,101432.63
2018-04-14T10:54:26.999Z,101437.92
2018-04-14T10:56:55.512Z,101438.88
2018-04-14T10:59:26.429Z,101434.56
2018-04-14T11:01:53.935Z,101434.98
2018-04-14T11:04:21.396Z,101440.23
2018-04-14T11:06:49.841Z,101429.86
2018-04-14T11:09:17.292Z,101437.51
2018-04-14T11:11:44.796Z,101447.37
2018-04-14T11:14:12.270Z,101448.09
2018-04-14T11:16:39.772Z,101454.23
2018-04-14T11:19:08.196Z,101455.74
2018-04-14T11:21:35.683Z,101460.11
2018-04-14T11:24:05.051Z,101469.09
2018-04-14T11:26:32.640Z,101475.66
2018-04-14T11:29:04.592Z,101473.89
2018-04-14T11:31:33.070Z,101475.23
2018-04-14T11:34:00.581Z,101479.39
2018-04-14T11:36:28.092Z,101484.20
2018-04-14T11:38:55.552Z,101489.60
2018-04-14T11:41:23.071Z,101489.11
2018-04-14T11:43:51.478Z,101481.02
2018-04-14T11:46:19.085Z,101488.46
2018-04-14T11:48:46.564Z,101490.09
2018-04-14T11:51:14.101Z,101486.77
2018-04-14T11:53:41.580Z,101498.13
2018-04-14T11:56:09.179Z,101490.70
2018-04-14T11:58:39.069Z,101498.58
2018-04-14T12:01:06.535Z,101504.27
2018-04-14T12:03:34.036Z,101485.73
2018-04-14T12:06:04.653Z,101503.08
2018-04-14T12:08:32.429Z,101512.22
2018-04-14T12:10:59.914Z,101516.66
2018-04-14T12:13:27.411Z,101516.86
2018-04-14T12:15:54.907Z,101521.94
2018-04-14T12:18:22.443Z,101519.20
2018-04-14T12:20:50.981Z,101531.52
2018-04-14T12:23:18.487Z,101532.66
2018-04-14T12:25:45.963Z,101535.53
2018-04-14T12:28:15.464Z,101537.58
2018-04-14T12:30:42.936Z,101544.31
2018-04-14T12:33:10.472Z,101542.63
2018-04-14T12:35:38.815Z,101550.61
2018-04-14T12:38:07.423Z,101553.13
2018-04-14T12:40:43.011Z,101566.36
2018-04-14T12:43:10.492Z,101565.47
2018-04-14T12:45:39.901Z,101562.36
2018-04-14T12:48:07.387Z,101571.59
2018-04-14T12:50:34.874Z,101574.86
2018-04-14T12:53:02.319Z,101586.95
2018-04-14T12:55:29.801Z,101584.78
2018-04-14T12:57:58.302Z,101601.56
2018-04-14T13:00:25.747Z,101599.77
2018-04-14T13:02:53.220Z,101596.17
2018-04-14T13:05:20.719Z,101601.77
2018-04-14T13:07:48.200Z,101594.20
2018-04-14T13:10:15.773Z,101605.36
2018-04-14T13:12:43.257Z,101600.58
2018-04-14T13:15:10.747Z,101601.66
2018-04-14T13:17:40.171Z,101602.38
2018-04-14T13:20:07.687Z,101589.97
2018-04-14T13:22:35.168Z,101604.59
2018-04-14T13:25:02.659Z,101607.55
2018-04-14T13:27:30.187Z,101603.70
2018-04-14T13:29:57.676Z,101608.14
2018-04-14T13:32:29.678Z,101613.98
2018-04-14T13:34:58.053Z,101615.30
2018-04-14T13:37:25.556Z,101611.73
2018-04-14T13:39:53.008Z,101608.88
2018-04-14T13:42:20.508Z,101613.27
2018-04-14T13:44:47.969Z,101610.80
2018-04-14T13:47:16.439Z,101620.63
2018-04-14T13:49:43.925Z,101623.72
2018-04-14T13:52:14.643Z,101617.95
2018-04-14T13:54:42.141Z,101615.98
2018-04-14T13:57:09.680Z,101623.08
2018-04-14T13:59:37.143Z,101628.10
2018-04-14T14:02:04.644Z,101620.81
2018-04-14T14:04:32.109Z,101627.53
2018-04-14T14:06:59.614Z,101619.27
2018-04-14T14:09:27.071Z,101620.88
2018-04-14T14:11:54.604Z,101614.89
2018-04-14T14:14:22.082Z,101617.06
2018-04-14T14:16:49.575Z,101613.69
2018-04-14T14:19:20.414Z,101613.83
2018-04-14T14:21:48.926Z,101613.27
2018-04-14T14:24:16.575Z,101613.31
2018-04-14T14:26:44.035Z,101613.98
2018-04-14T14:29:11.585Z,101625.49
2018-04-14T14:31:39.047Z,101625.17
2018-04-14T14:34:06.608Z,101621.89
2018-04-14T14:36:34.076Z,101632.06
2018-04-14T14:39:01.564Z,101628.82
2018-04-14T14:41:29.068Z,101626.64
2018-04-14T14:43:56.585Z,101624.97
2018-04-14T14:46:24.091Z,101623.13
2018-04-14T14:48:51.584Z,101629.41
2018-04-14T14:51:19.043Z,101633.00
2018-04-14T14:53:46.575Z,101633.11
2018-04-14T14:56:14.088Z,101621.35
2018-04-14T14:58:42.510Z,101624.06
2018-04-14T15:01:09.973Z,101627.72
2018-04-14T15:03:37.512Z,101630.34
2018-04-14T15:06:06.893Z,101630.80
2018-04-14T15:08:34.367Z,101634.63
2018-04-14T15:11:02.899Z,101638.13
2018-04-14T15:13:30.360Z,101609.23
2018-04-14T15:15:57.851Z,101638.52
2018-04-14T15:18:25.316Z,101627.83
2018-04-14T15:20:52.840Z,101631.90
2018-04-14T15:23:20.349Z,101629.14
2018-04-14T15:25:47.887Z,101634.00
2018-04-14T15:28:15.374Z,101636.65
2018-04-14T15:30:42.860Z,101640.31
2018-04-14T15:33:10.319Z,101642.00
2018-04-14T15:35:37.819Z,101642.80
2018-04-14T15:38:05.279Z,101645.21
2018-04-14T15:40:32.808Z,101655.81
2018-04-14T15:43:00.298Z,101655.25
2018-04-14T15:45:27.868Z,101660.52
2018-04-14T15:47:55.375Z,101654.04
2018-04-14T15:50:22.848Z,101649.97
2018-04-14T15:52:50.335Z,101661.45
2018-04-14T15:55:17.820Z,101676.36
2018-04-14T15:57:45.311Z,101662.35
2018-04-14T16:00:12.772Z,101671.38
2018-04-14T16:02:40.332Z,101672.15
2018-04-14T16:05:07.804Z,101682.02
2018-04-14T16:07:35.291Z,101678.88
2018-04-14T16:10:02.833Z,101675.07
2018-04-14T16:12:30.332Z,101679.67
2018-04-14T16:14:57.785Z,101688.44
2018-04-14T16:17:25.275Z,101677.21
2018-04-14T16:19:52.747Z,101688.07
2018-04-14T16:22:20.195Z,101679.97
2018-04-14T16:24:47.688Z,101689.42
2018-04-14T16:27:15.139Z,101695.34
2018-04-14T16:29:42.626Z,101692.05
2018-04-14T16:32:10.087Z,101694.13
2018-04-14T16:34:37.612Z,101695.83
2018-04-14T16:37:05.066Z,101704.78
2018-04-14T16:39:32.552Z,101704.67
2018-04-14T16:42:00.003Z,101698.96
2018-04-14T16:44:27.539Z,101703.03
2018-04-14T16:46:54.999Z,101717.30
2018-04-14T16:49:22.546Z,101724.83
2018-04-14T16:51:49.984Z,101712.80
2018-04-14T16:54:17.472Z,101716.71
2018-04-14T16:56:44.929Z,101712.12
2018-04-14T16:59:12.428Z,101712.20
2018-04-14T17:01:39.900Z,101716.11
2018-04-14T17:04:07.399Z,101714.89
2018-04-14T17:06:34.888Z,101711.34
2018-04-14T17:09:02.392Z,101715.63
2018-04-14T17:11:29.851Z,101714.18
2018-04-14T17:13:57.439Z,101729.33
2018-04-14T17:16:24.995Z,101730.98
2018-04-14T17:18:52.601Z,101718.77
2018-04-14T17:21:20.064Z,101717.95
2018-04-14T17:23:47.541Z,101723.59
2018-04-14T17:26:15.032Z,101720.30
2018-04-14T17:28:42.540Z,101720.63
2018-04-14T17:31:10.030Z,101721.79
2018-04-14T17:33:37.494Z,101711.73
2018-04-14T17:36:04.991Z,101714.10
2018-04-14T17:38:32.454Z,101719.77
2018-04-14T17:40:59.972Z,101725.93
2018-04-14T17:43:27.440Z,101708.66
2018-04-14T17:45:54.934Z,101719.84
2018-04-14T17:48:22.392Z,101716.35
2018-04-14T17:50:49.872Z,101714.25
2018-04-14T17:53:17.331Z,101710.05
2018-04-14T17:55:44.819Z,101719.88
2018-04-14T17:58:12.380Z,101714.23
2018-04-14T18:00:39.872Z,101715.44
2018-04-14T18:03:07.331Z,101720.15
2018-04-14T18:05:34.781Z,101721.08
2018-04-14T18:08:02.316Z,101714.64
2018-04-14T18:10:29.783Z,101713.95
2018-04-14T18:12:57.421Z,101723.33
2018-04-14T18:15:24.884Z,101724.95
2018-04-14T18:17:52.375Z,101721.36
2018-04-14T18:20:19.831Z,101726.17
2018-04-14T18:22:47.328Z,101724.49
2018-04-14T18:25:14.802Z,101728.48
2018-04-14T18:27:42.371Z,101724.55
2018-04-14T18:30:09.822Z,101721.20
2018-04-14T18:32:37.355Z,101742.91
2018-04-14T18:35:05.732Z,101745.50
2018-04-14T18:37:33.223Z,101749.66
2018-04-14T18:42:51.120Z,101757.48
2018-04-14T18:45:18.576Z,101761.58
2018-04-14T18:47:46.071Z,101766.48
2018-04-14T18:50:13.544Z,101765.68
2018-04-14T18:55:14.938Z,101773.44
2018-04-14T18:57:44.128Z,101773.09
2018-04-14T19:00:11.634Z,101779.09
2018-04-14T19:05:32.267Z,101768.95
2018-04-14T19:08:00.752Z,101772.41
2018-04-14T19:10:28.456Z,101776.18
2018-04-14T19:12:55.900Z,101782.34
2018-04-14T19:15:25.953Z,101790.41
